Time;durP1;ratioP1;P1;durP2;ratioP2;P2;SDS_P1;SDS_P2;PMS_P1;PMS_P2;Temp;Humidity;BMP_temperature;BMP_pressure;BME280_temperature;BME280_humidity;BME280_pressure;Samples;Min_cycle;Max_cycle;Signal;HPM_P1;HPM_P2
2024/01/21 00:01:03;;;;;;;;;;;;;;;;;;53062;1251;1057458;-79
2024/01/21 00:03:50;;;;;;;;;;;;;;;;;;53788;1253;1057769;-80
2024/01/21 00:06:16;;;;;;;;;;;;;;;;;;54155;1251;1003274;-79
2024/01/21 00:08:43;;;;;;;;;;;;;;;;;;54133;1255;1058211;-80
2024/01/21 00:11:09;;;;;;;;;;;;;;;;;;54147;1252;1003094;-79
2024/01/21 00:13:36;;;;;;;;;;;;;;;;;;54099;1254;1038741;-81
2024/01/21 00:16:02;;;;;;;;;;;;;;;;;;54172;1251;1003581;-81
2024/01/21 00:18:29;;;;;;;;;;;;;;;;;;54172;1251;1046108;-80
2024/01/21 00:20:56;;;;;;;;;;;;;;;;;;54163;1250;1003092;-79
2024/01/21 00:23:22;;;;;;;;;;;;;;;;;;54003;1251;1061353;-80
2024/01/21 00:25:49;;;;;;;;;;;;;;;;;;53007;1251;1005080;-81
2024/01/21 00:28:15;;;;;;;;;;;;;;;;;;53016;1251;1057119;-81
2024/01/21 00:30:42;;;;;;;;;;;;;;;;;;53017;1251;1005525;-81
2024/01/21 00:33:08;;;;;;;;;;;;;;;;;;53028;1251;1058263;-79
2024/01/21 00:35:34;;;;;;;;;;;;;;;;;;52967;1251;1004754;-81
2024/01/21 00:38:02;;;;;;;;;;;;;;;;;;52957;1251;1038765;-79
2024/01/21 00:40:28;;;;;;;;;;;;;;;;;;52929;1251;1005576;-83
2024/01/21 00:43:01;;;;;;;;;;;;;;;;;;53202;1251;1045066;-81
2024/01/21 00:45:27;;;;;;;;;;;;;;;;;;53029;1251;1045762;-81
2024/01/21 00:47:54;;;;;;;;;;;;;;;;;;53025;1251;1005569;-79
2024/01/21 00:50:20;;;;;;;;;;;;;;;;;;52899;1251;1061342;-78
2024/01/21 00:52:47;;;;;;;;;;;;;;;;;;52917;1253;1004870;-80
2024/01/21 00:55:14;;;;;;;;;;;;;;;;;;52979;1251;1057037;-79
2024/01/21 00:57:40;;;;;;;;;;;;;;;;;;53000;1253;1005401;-79
2024/01/21 01:00:07;;;;;;;;;;;;;;;;;;52934;1254;1059504;-81
2024/01/21 01:02:34;;;;;;;;;;;;;;;;;;54126;1254;1003705;-79
2024/01/21 01:05:00;;;;;;;;;;;;;;;;;;54120;1257;1039065;-81
2024/01/21 01:07:27;;;;;;;;;;;;;;;;;;54137;1252;1003544;-79
2024/01/21 01:09:54;;;;;;;;;;;;;;;;;;54193;1251;1046147;-79
2024/01/21 01:12:20;;;;;;;;;;;;;;;;;;54173;1252;1003101;-80
2024/01/21 01:14:47;;;;;;;;;;;;;;;;;;54161;1251;1061434;-79
2024/01/21 01:17:14;;;;;;;;;;;;;;;;;;53518;1251;1005585;-79
2024/01/21 01:19:41;;;;;;;;;;;;;;;;;;53862;1250;1056268;-80
2024/01/21 01:22:09;;;;;;;;;;;;;;;;;;53864;1254;1003798;-79
2024/01/21 01:24:36;;;;;;;;;;;;;;;;;;53031;1254;1058904;-81
2024/01/21 01:27:02;;;;;;;;;;;;;;;;;;52990;1251;1004853;-79
2024/01/21 01:29:29;;;;;;;;;;;;;;;;;;52994;1254;1038218;-78
2024/01/21 01:31:56;;;;;;;;;;;;;;;;;;52995;1254;1005263;-81
2024/01/21 01:34:22;;;;;;;;;;;;;;;;;;52976;1251;1046183;-78
2024/01/21 01:36:49;;;;;;;;;;;;;;;;;;52978;1251;1005535;-79
2024/01/21 01:39:15;;;;;;;;;;;;;;;;;;52999;1251;1061665;-79
2024/01/21 01:41:42;;;;;;;;;;;;;;;;;;53039;1251;1004985;-81
2024/01/21 01:44:08;;;;;;;;;;;;;;;;;;52981;1251;1057010;-81
2024/01/21 01:46:35;;;;;;;;;;;;;;;;;;53055;1251;1005020;-81
2024/01/21 01:49:01;;;;;;;;;;;;;;;;;;53017;1253;1058299;-79
2024/01/21 01:51:28;;;;;;;;;;;;;;;;;;52964;1255;1005460;-79
2024/01/21 01:53:54;;;;;;;;;;;;;;;;;;52918;1253;1039131;-79
2024/01/21 01:56:22;;;;;;;;;;;;;;;;;;52994;1255;1004889;-80
2024/01/21 01:58:49;;;;;;;;;;;;;;;;;;52955;1251;1045849;-79
2024/01/21 02:01:15;;;;;;;;;;;;;;;;;;53021;1253;1005007;-79
2024/01/21 02:03:42;;;;;;;;;;;;;;;;;;52983;1255;1061304;-81
2024/01/21 02:06:08;;;;;;;;;;;;;;;;;;52954;1252;1004802;-79
2024/01/21 02:08:35;;;;;;;;;;;;;;;;;;52962;1251;1056552;-79
2024/01/21 02:11:01;;;;;;;;;;;;;;;;;;53010;1251;1005570;-79
2024/01/21 02:13:27;;;;;;;;;;;;;;;;;;53054;1253;1057987;-80
2024/01/21 02:15:54;;;;;;;;;;;;;;;;;;52960;1255;1004962;-79
2024/01/21 02:18:21;;;;;;;;;;;;;;;;;;52935;1255;1038887;-81
2024/01/21 02:20:47;;;;;;;;;;;;;;;;;;52997;1251;1005144;-79
2024/01/21 02:23:14;;;;;;;;;;;;;;;;;;52990;1251;1045376;-81
2024/01/21 02:25:40;;;;;;;;;;;;;;;;;;52971;1255;1005453;-79
2024/01/21 02:28:07;;;;;;;;;;;;;;;;;;53027;1251;1062205;-80
2024/01/21 02:30:37;;;;;;;;;;;;;;;;;;53007;1251;1004959;-81
2024/01/21 02:33:03;;;;;;;;;;;;;;;;;;53002;1253;1057150;-80
2024/01/21 02:35:30;;;;;;;;;;;;;;;;;;52995;1253;1005174;-81
2024/01/21 02:37:56;;;;;;;;;;;;;;;;;;52969;1251;1059003;-80
2024/01/21 02:40:23;;;;;;;;;;;;;;;;;;52965;1251;1005365;-81
2024/01/21 02:42:49;;;;;;;;;;;;;;;;;;53510;1251;1038924;-80
2024/01/21 02:45:16;;;;;;;;;;;;;;;;;;54135;1255;1003408;-80
2024/01/21 02:47:42;;;;;;;;;;;;;;;;;;54153;1251;1045552;-80
2024/01/21 02:50:09;;;;;;;;;;;;;;;;;;53776;1251;1005560;-79
2024/01/21 02:52:35;;;;;;;;;;;;;;;;;;53463;1251;1061400;-81
2024/01/21 02:55:03;;;;;;;;;;;;;;;;;;54187;1251;1003044;-79
2024/01/21 02:57:29;;;;;;;;;;;;;;;;;;54192;1251;1055975;-79
2024/01/21 02:59:56;;;;;;;;;;;;;;;;;;54209;1250;1003436;-80
2024/01/21 03:02:22;;;;;;;;;;;;;;;;;;54138;1251;1057952;-81
2024/01/21 03:04:49;;;;;;;;;;;;;;;;;;54220;1251;1003501;-79
2024/01/21 03:07:15;;;;;;;;;;;;;;;;;;53291;1251;1039208;-79
2024/01/21 03:09:42;;;;;;;;;;;;;;;;;;52994;1251;1005511;-79
2024/01/21 03:12:08;;;;;;;;;;;;;;;;;;52909;1251;1046416;-82
2024/01/21 03:14:35;;;;;;;;;;;;;;;;;;52960;1251;1005136;-78
2024/01/21 03:17:03;;;;;;;;;;;;;;;;;;52894;1251;1060663;-82
2024/01/21 03:19:30;;;;;;;;;;;;;;;;;;54188;1251;1003116;-79
2024/01/21 03:21:56;;;;;;;;;;;;;;;;;;54176;1250;1003241;-79
2024/01/21 03:24:23;;;;;;;;;;;;;;;;;;54225;1251;1057329;-80
2024/01/21 03:26:49;;;;;;;;;;;;;;;;;;54199;1251;1003564;-79
2024/01/21 03:29:16;;;;;;;;;;;;;;;;;;54172;1251;1058668;-79
2024/01/21 03:31:42;;;;;;;;;;;;;;;;;;54182;1251;1003423;-80
2024/01/21 03:34:09;;;;;;;;;;;;;;;;;;53176;1252;1038878;-81
2024/01/21 03:36:35;;;;;;;;;;;;;;;;;;52978;1254;1005466;-79
2024/01/21 03:39:02;;;;;;;;;;;;;;;;;;53005;1251;1046397;-81
2024/01/21 03:41:28;;;;;;;;;;;;;;;;;;53015;1251;1004729;-80
2024/01/21 03:43:56;;;;;;;;;;;;;;;;;;52960;1251;1061817;-79
2024/01/21 03:46:23;;;;;;;;;;;;;;;;;;53007;1251;1004870;-80
2024/01/21 03:48:49;;;;;;;;;;;;;;;;;;53008;1253;1005438;-81
2024/01/21 03:51:16;;;;;;;;;;;;;;;;;;53018;1253;1057683;-80
2024/01/21 03:53:42;;;;;;;;;;;;;;;;;;53018;1253;1004902;-80
2024/01/21 03:56:09;;;;;;;;;;;;;;;;;;52904;1253;1057226;-79
2024/01/21 03:58:35;;;;;;;;;;;;;;;;;;52996;1253;1005536;-78
2024/01/21 04:01:02;;;;;;;;;;;;;;;;;;53019;1251;1038934;-80
2024/01/21 04:03:29;;;;;;;;;;;;;;;;;;53028;1251;1005315;-80
2024/01/21 04:05:55;;;;;;;;;;;;;;;;;;52979;1251;1045151;-80
2024/01/21 04:08:21;;;;;;;;;;;;;;;;;;53012;1251;1005353;-81
2024/01/21 04:10:50;;;;;;;;;;;;;;;;;;53055;1251;1061008;-82
2024/01/21 04:13:17;;;;;;;;;;;;;;;;;;53020;1251;1005484;-80
2024/01/21 04:15:43;;;;;;;;;;;;;;;;;;52994;1251;1005552;-79
2024/01/21 04:18:10;;;;;;;;;;;;;;;;;;52952;1251;1057060;-79
2024/01/21 04:20:36;;;;;;;;;;;;;;;;;;53045;1254;1004815;-81
2024/01/21 04:23:03;;;;;;;;;;;;;;;;;;53279;1251;1058413;-79
2024/01/21 04:25:29;;;;;;;;;;;;;;;;;;52956;1253;1005454;-80
2024/01/21 04:27:56;;;;;;;;;;;;;;;;;;53055;1251;1038159;-80
2024/01/21 04:30:22;;;;;;;;;;;;;;;;;;53064;1251;1005200;-78
2024/01/21 04:32:49;;;;;;;;;;;;;;;;;;53025;1251;1046877;-80
2024/01/21 04:35:15;;;;;;;;;;;;;;;;;;52970;1251;1003801;-79
2024/01/21 04:37:42;;;;;;;;;;;;;;;;;;53418;1251;1061194;-79
2024/01/21 04:40:08;;;;;;;;;;;;;;;;;;53277;1251;1004771;-79
2024/01/21 04:42:34;;;;;;;;;;;;;;;;;;53008;1250;1057069;-80
2024/01/21 04:45:02;;;;;;;;;;;;;;;;;;53008;1251;1004783;-78
2024/01/21 04:47:28;;;;;;;;;;;;;;;;;;52994;1254;1060229;-81
2024/01/21 04:49:55;;;;;;;;;;;;;;;;;;53005;1254;1005336;-79
2024/01/21 04:52:21;;;;;;;;;;;;;;;;;;52969;1251;1038331;-81
2024/01/21 04:54:48;;;;;;;;;;;;;;;;;;53034;1253;1005337;-82
2024/01/21 04:57:14;;;;;;;;;;;;;;;;;;53018;1254;1046170;-79
2024/01/21 04:59:41;;;;;;;;;;;;;;;;;;52994;1251;1005221;-79
2024/01/21 05:02:08;;;;;;;;;;;;;;;;;;53042;1251;1060347;-79
2024/01/21 05:04:34;;;;;;;;;;;;;;;;;;53033;1254;1005276;-82
2024/01/21 05:07:01;;;;;;;;;;;;;;;;;;53007;1251;1057567;-79
2024/01/21 05:09:27;;;;;;;;;;;;;;;;;;52977;1254;1004978;-79
2024/01/21 05:11:54;;;;;;;;;;;;;;;;;;52990;1251;1057878;-79
2024/01/21 05:14:20;;;;;;;;;;;;;;;;;;53026;1251;1005394;-79
2024/01/21 05:16:47;;;;;;;;;;;;;;;;;;53057;1251;1038218;-81
2024/01/21 05:19:14;;;;;;;;;;;;;;;;;;54169;1250;1003369;-79
2024/01/21 05:21:41;;;;;;;;;;;;;;;;;;53786;1250;1045292;-81
2024/01/21 05:24:07;;;;;;;;;;;;;;;;;;53020;1251;1005238;-80
2024/01/21 05:26:34;;;;;;;;;;;;;;;;;;52942;1251;1061364;-79
2024/01/21 05:29:00;;;;;;;;;;;;;;;;;;53047;1251;1004908;-80
2024/01/21 05:31:31;;;;;;;;;;;;;;;;;;53053;1251;1057483;-81
2024/01/21 05:33:58;;;;;;;;;;;;;;;;;;52961;1251;1056472;-81
2024/01/21 05:36:24;;;;;;;;;;;;;;;;;;53015;1254;1005200;-80
2024/01/21 05:38:51;;;;;;;;;;;;;;;;;;53019;1251;1058786;-78
2024/01/21 05:41:17;;;;;;;;;;;;;;;;;;53025;1251;1005586;-78
2024/01/21 05:43:44;;;;;;;;;;;;;;;;;;52979;1251;1038658;-79
2024/01/21 05:46:11;;;;;;;;;;;;;;;;;;53013;1254;1005451;-81
2024/01/21 05:48:37;;;;;;;;;;;;;;;;;;53001;1251;1046131;-78
2024/01/21 05:51:04;;;;;;;;;;;;;;;;;;52929;1253;1004898;-78
2024/01/21 05:53:30;;;;;;;;;;;;;;;;;;52953;1255;1061031;-80
2024/01/21 05:55:57;;;;;;;;;;;;;;;;;;52966;1252;1005283;-79
2024/01/21 05:58:24;;;;;;;;;;;;;;;;;;52952;1251;1057426;-80
2024/01/21 06:00:50;;;;;;;;;;;;;;;;;;52982;1250;1004760;-79
2024/01/21 06:03:17;;;;;;;;;;;;;;;;;;52966;1254;1058200;-79
2024/01/21 06:05:44;;;;;;;;;;;;;;;;;;52890;1251;1005402;-79
2024/01/21 06:08:10;;;;;;;;;;;;;;;;;;52914;1251;1038285;-81
2024/01/21 06:10:36;;;;;;;;;;;;;;;;;;52960;1253;1004942;-79
2024/01/21 06:13:03;;;;;;;;;;;;;;;;;;53043;1251;1047129;-79
2024/01/21 06:15:30;;;;;;;;;;;;;;;;;;53733;1251;1004961;-79
2024/01/21 06:17:56;;;;;;;;;;;;;;;;;;53129;1251;1060408;-78
2024/01/21 06:20:23;;;;;;;;;;;;;;;;;;53172;1251;1005529;-78
2024/01/21 06:22:49;;;;;;;;;;;;;;;;;;53172;1250;1058426;-81
2024/01/21 06:25:17;;;;;;;;;;;;;;;;;;53072;1251;1005463;-81
2024/01/21 06:27:43;;;;;;;;;;;;;;;;;;52979;1251;1058253;-80
2024/01/21 06:30:10;;;;;;;;;;;;;;;;;;53001;1251;1005500;-81
2024/01/21 06:32:36;;;;;;;;;;;;;;;;;;52957;1251;1039039;-79
2024/01/21 06:35:03;;;;;;;;;;;;;;;;;;52877;1253;1209667;-80
2024/01/21 06:37:29;;;;;;;;;;;;;;;;;;53047;1251;1046977;-80
2024/01/21 06:39:56;;;;;;;;;;;;;;;;;;53035;1253;1005415;-79
2024/01/21 06:42:22;;;;;;;;;;;;;;;;;;52973;1251;1061963;-79
2024/01/21 06:44:49;;;;;;;;;;;;;;;;;;52998;1251;1005097;-80
2024/01/21 06:47:15;;;;;;;;;;;;;;;;;;53040;1251;1057883;-81
2024/01/21 06:49:41;;;;;;;;;;;;;;;;;;53001;1251;1005500;-81
2024/01/21 06:52:08;;;;;;;;;;;;;;;;;;52893;1251;1057553;-79
2024/01/21 06:54:34;;;;;;;;;;;;;;;;;;52976;1251;1004619;-81
2024/01/21 06:57:01;;;;;;;;;;;;;;;;;;53650;1253;1039494;-80
2024/01/21 06:59:28;;;;;;;;;;;;;;;;;;53339;1252;1005552;-78
2024/01/21 07:01:55;;;;;;;;;;;;;;;;;;52982;1252;1046310;-80
2024/01/21 07:04:21;;;;;;;;;;;;;;;;;;53049;1253;1004787;-78
2024/01/21 07:06:48;;;;;;;;;;;;;;;;;;53021;1255;1061256;-79
2024/01/21 07:09:15;;;;;;;;;;;;;;;;;;52943;1251;1005630;-81
2024/01/21 07:11:41;;;;;;;;;;;;;;;;;;53019;1252;1057162;-80
2024/01/21 07:14:08;;;;;;;;;;;;;;;;;;53022;1253;1003805;-79
2024/01/21 07:16:35;;;;;;;;;;;;;;;;;;53022;1254;1057882;-79
2024/01/21 07:19:01;;;;;;;;;;;;;;;;;;53793;1254;1003663;-79
2024/01/21 07:21:27;;;;;;;;;;;;;;;;;;54186;1251;1038991;-79
2024/01/21 07:23:54;;;;;;;;;;;;;;;;;;54181;1251;1003486;-81
2024/01/21 07:26:23;;;;;;;;;;;;;;;;;;54201;1251;1045568;-79
2024/01/21 07:28:49;;;;;;;;;;;;;;;;;;54237;1251;1003128;-81
2024/01/21 07:31:16;;;;;;;;;;;;;;;;;;54173;1251;1003145;-81
2024/01/21 07:33:43;;;;;;;;;;;;;;;;;;54216;1251;1060422;-80
2024/01/21 07:36:09;;;;;;;;;;;;;;;;;;54198;1251;1003406;-81
2024/01/21 07:38:36;;;;;;;;;;;;;;;;;;54196;1250;1057245;-79
2024/01/21 07:41:03;;;;;;;;;;;;;;;;;;54159;1254;1003380;-79
2024/01/21 07:43:29;;;;;;;;;;;;;;;;;;54194;1251;1057667;-80
2024/01/21 07:45:55;;;;;;;;;;;;;;;;;;54194;1251;1003242;-80
2024/01/21 07:48:23;;;;;;;;;;;;;;;;;;53384;1253;1038228;-79
2024/01/21 07:50:50;;;;;;;;;;;;;;;;;;52989;1253;1005085;-81
2024/01/21 07:53:16;;;;;;;;;;;;;;;;;;52980;1252;1045992;-81
2024/01/21 07:55:43;;;;;;;;;;;;;;;;;;52994;1253;1005209;-79
2024/01/21 07:58:09;;;;;;;;;;;;;;;;;;53023;1253;1060644;-81
2024/01/21 08:00:36;;;;;;;;;;;;;;;;;;52941;1254;1004722;-79
2024/01/21 08:03:04;;;;;;;;;;;;;;;;;;52963;1253;1057415;-79
2024/01/21 08:05:32;;;;;;;;;;;;;;;;;;52978;1253;1005211;-81
2024/01/21 08:07:59;;;;;;;;;;;;;;;;;;53007;1252;1004865;-81
2024/01/21 08:10:25;;;;;;;;;;;;;;;;;;52988;1252;1005250;-78
2024/01/21 08:12:52;;;;;;;;;;;;;;;;;;52934;1253;1059466;-79
2024/01/21 08:15:18;;;;;;;;;;;;;;;;;;53006;1253;1005400;-81
2024/01/21 08:17:45;;;;;;;;;;;;;;;;;;53256;1252;1038547;-83
2024/01/21 08:20:11;;;;;;;;;;;;;;;;;;53006;1253;1004876;-81
2024/01/21 08:22:38;;;;;;;;;;;;;;;;;;53042;1250;1045674;-81
2024/01/21 08:25:05;;;;;;;;;;;;;;;;;;53012;1253;1005029;-79
2024/01/21 08:27:32;;;;;;;;;;;;;;;;;;52977;1253;1061618;-79
2024/01/21 08:29:58;;;;;;;;;;;;;;;;;;53005;1255;1004772;-79
2024/01/21 08:32:25;;;;;;;;;;;;;;;;;;53040;1251;1056568;-78
2024/01/21 08:34:51;;;;;;;;;;;;;;;;;;52998;1256;1005438;-79
2024/01/21 08:37:18;;;;;;;;;;;;;;;;;;52963;1254;1057686;-79
2024/01/21 08:39:44;;;;;;;;;;;;;;;;;;52987;1256;1004796;-80
2024/01/21 08:42:11;;;;;;;;;;;;;;;;;;53835;1252;1039408;-79
2024/01/21 08:44:37;;;;;;;;;;;;;;;;;;54135;1253;1003434;-81
2024/01/21 08:47:04;;;;;;;;;;;;;;;;;;54219;1251;1044775;-81
2024/01/21 08:49:30;;;;;;;;;;;;;;;;;;54155;1251;1003502;-79
2024/01/21 08:51:57;;;;;;;;;;;;;;;;;;53359;1252;1060804;-79
2024/01/21 08:54:24;;;;;;;;;;;;;;;;;;52986;1253;1005526;-79
2024/01/21 08:56:51;;;;;;;;;;;;;;;;;;53030;1253;1057721;-79
2024/01/21 08:59:17;;;;;;;;;;;;;;;;;;52965;1255;1005471;-81
2024/01/21 09:01:44;;;;;;;;;;;;;;;;;;52991;1253;1057697;-81
2024/01/21 09:04:10;;;;;;;;;;;;;;;;;;52973;1253;1005330;-78
2024/01/21 09:06:41;;;;;;;;;;;;;;;;;;53028;1255;1037874;-81
2024/01/21 09:09:11;;;;;;;;;;;;;;;;;;53016;1253;1038617;-80
2024/01/21 09:11:38;;;;;;;;;;;;;;;;;;52933;1253;1005344;-79
2024/01/21 09:14:04;;;;;;;;;;;;;;;;;;53008;1252;1004921;-80
2024/01/21 09:16:31;;;;;;;;;;;;;;;;;;53034;1252;1045892;-81
2024/01/21 09:18:58;;;;;;;;;;;;;;;;;;53029;1252;1005439;-80
2024/01/21 09:21:25;;;;;;;;;;;;;;;;;;53076;1251;1061699;-79
2024/01/21 09:23:51;;;;;;;;;;;;;;;;;;53039;1251;1005220;-80
2024/01/21 09:26:17;;;;;;;;;;;;;;;;;;52997;1251;1057463;-80
2024/01/21 09:28:44;;;;;;;;;;;;;;;;;;53015;1251;1005246;-78
2024/01/21 09:31:10;;;;;;;;;;;;;;;;;;52967;1253;1058870;-78
2024/01/21 09:33:37;;;;;;;;;;;;;;;;;;53036;1251;1004875;-80
2024/01/21 09:36:04;;;;;;;;;;;;;;;;;;53042;1253;1038429;-78
2024/01/21 09:38:30;;;;;;;;;;;;;;;;;;53028;1251;1005120;-81
2024/01/21 09:40:57;;;;;;;;;;;;;;;;;;52984;1251;1045871;-81
2024/01/21 09:43:24;;;;;;;;;;;;;;;;;;52977;1251;1004752;-81
2024/01/21 09:45:51;;;;;;;;;;;;;;;;;;53012;1253;1061931;-80
2024/01/21 09:48:17;;;;;;;;;;;;;;;;;;53072;1250;1004849;-81
2024/01/21 09:50:44;;;;;;;;;;;;;;;;;;52918;1253;1057058;-78
2024/01/21 09:53:10;;;;;;;;;;;;;;;;;;52930;1253;1004672;-79
2024/01/21 09:55:37;;;;;;;;;;;;;;;;;;52923;1253;1058323;-80
2024/01/21 09:58:03;;;;;;;;;;;;;;;;;;52972;1253;1005269;-79
2024/01/21 10:00:30;;;;;;;;;;;;;;;;;;52917;1251;1038025;-79
2024/01/21 10:02:56;;;;;;;;;;;;;;;;;;52942;1253;1004694;-79
2024/01/21 10:05:23;;;;;;;;;;;;;;;;;;53007;1253;1045110;-81
2024/01/21 10:07:49;;;;;;;;;;;;;;;;;;52997;1253;1004733;-81
2024/01/21 10:10:16;;;;;;;;;;;;;;;;;;52934;1253;1061229;-80
2024/01/21 10:12:43;;;;;;;;;;;;;;;;;;53040;1253;1005398;-79
2024/01/21 10:15:10;;;;;;;;;;;;;;;;;;53052;1251;1056832;-81
2024/01/21 10:17:36;;;;;;;;;;;;;;;;;;53030;1253;1005132;-79
2024/01/21 10:20:03;;;;;;;;;;;;;;;;;;53259;1251;1058291;-81
2024/01/21 10:22:29;;;;;;;;;;;;;;;;;;53263;1255;1004639;-79
2024/01/21 10:24:58;;;;;;;;;;;;;;;;;;52996;1253;1039296;-80
2024/01/21 10:27:25;;;;;;;;;;;;;;;;;;53023;1253;1004784;-79
2024/01/21 10:29:51;;;;;;;;;;;;;;;;;;53014;1252;1005122;-80
2024/01/21 10:32:18;;;;;;;;;;;;;;;;;;53019;1251;1045442;-80
2024/01/21 10:34:45;;;;;;;;;;;;;;;;;;53007;1255;1004862;-79
2024/01/21 10:37:12;;;;;;;;;;;;;;;;;;53009;1250;1061672;-80
2024/01/21 10:39:38;;;;;;;;;;;;;;;;;;53033;1251;1004894;-79
2024/01/21 10:42:05;;;;;;;;;;;;;;;;;;53012;1252;1057859;-80
2024/01/21 10:44:32;;;;;;;;;;;;;;;;;;53060;1250;1004949;-80
2024/01/21 10:46:59;;;;;;;;;;;;;;;;;;53009;1253;1057475;-79
2024/01/21 10:49:26;;;;;;;;;;;;;;;;;;53049;1255;1004754;-80
2024/01/21 10:51:52;;;;;;;;;;;;;;;;;;52956;1253;1039259;-81
2024/01/21 10:54:19;;;;;;;;;;;;;;;;;;53007;1253;1005206;-79
2024/01/21 10:56:45;;;;;;;;;;;;;;;;;;53001;1253;1045575;-79
2024/01/21 10:59:12;;;;;;;;;;;;;;;;;;52948;1253;1005072;-81
2024/01/21 11:01:38;;;;;;;;;;;;;;;;;;52942;1253;1060957;-79
2024/01/21 11:04:08;;;;;;;;;;;;;;;;;;52935;1252;1003842;-81
2024/01/21 11:06:35;;;;;;;;;;;;;;;;;;52954;1252;1057661;-79
2024/01/21 11:09:03;;;;;;;;;;;;;;;;;;52982;1253;1005100;-78
2024/01/21 11:11:30;;;;;;;;;;;;;;;;;;52938;1256;1057977;-79
2024/01/21 11:13:56;;;;;;;;;;;;;;;;;;53006;1255;1003886;-79
2024/01/21 11:16:23;;;;;;;;;;;;;;;;;;53002;1254;1038709;-81
2024/01/21 11:18:49;;;;;;;;;;;;;;;;;;53048;1253;1004905;-81
2024/01/21 11:21:16;;;;;;;;;;;;;;;;;;52990;1253;1045608;-81
2024/01/21 11:23:43;;;;;;;;;;;;;;;;;;52998;1253;1005116;-79
2024/01/21 11:26:09;;;;;;;;;;;;;;;;;;53045;1251;1061751;-81
2024/01/21 11:28:36;;;;;;;;;;;;;;;;;;53020;1251;1005444;-79
2024/01/21 11:31:02;;;;;;;;;;;;;;;;;;52985;1251;1057816;-81
2024/01/21 11:33:29;;;;;;;;;;;;;;;;;;53060;1251;1005362;-79
2024/01/21 11:35:56;;;;;;;;;;;;;;;;;;53348;1252;1058387;-79
2024/01/21 11:38:23;;;;;;;;;;;;;;;;;;52938;1255;1005495;-80
2024/01/21 11:40:49;;;;;;;;;;;;;;;;;;52956;1254;1037912;-79
2024/01/21 11:43:16;;;;;;;;;;;;;;;;;;52927;1251;1004943;-81
2024/01/21 11:45:43;;;;;;;;;;;;;;;;;;53013;1254;1046028;-79
2024/01/21 11:48:09;;;;;;;;;;;;;;;;;;53038;1254;1005542;-79
2024/01/21 11:50:36;;;;;;;;;;;;;;;;;;52984;1253;1060736;-80
2024/01/21 11:53:02;;;;;;;;;;;;;;;;;;52948;1252;1005291;-79
2024/01/21 11:55:29;;;;;;;;;;;;;;;;;;52980;1253;1056941;-78
2024/01/21 11:57:55;;;;;;;;;;;;;;;;;;53010;1255;1005499;-79
2024/01/21 12:00:22;;;;;;;;;;;;;;;;;;52940;1253;1058595;-79
2024/01/21 12:02:49;;;;;;;;;;;;;;;;;;52941;1251;1005385;-80
2024/01/21 12:05:15;;;;;;;;;;;;;;;;;;52991;1256;1038545;-80
2024/01/21 12:07:42;;;;;;;;;;;;;;;;;;53008;1254;1005300;-79
2024/01/21 12:10:09;;;;;;;;;;;;;;;;;;52921;1255;1045817;-80
2024/01/21 12:12:35;;;;;;;;;;;;;;;;;;52997;1255;1004863;-79
2024/01/21 12:15:02;;;;;;;;;;;;;;;;;;53008;1253;1060530;-79
2024/01/21 12:17:29;;;;;;;;;;;;;;;;;;53008;1251;1005679;-79
2024/01/21 12:19:55;;;;;;;;;;;;;;;;;;52991;1251;1056834;-80
2024/01/21 12:22:21;;;;;;;;;;;;;;;;;;52976;1254;1005465;-81
2024/01/21 12:24:49;;;;;;;;;;;;;;;;;;53016;1254;1058869;-79
2024/01/21 12:27:16;;;;;;;;;;;;;;;;;;53006;1250;1005246;-79
2024/01/21 12:29:42;;;;;;;;;;;;;;;;;;52974;1255;1037795;-80
2024/01/21 12:32:09;;;;;;;;;;;;;;;;;;52981;1254;1005637;-81
2024/01/21 12:34:35;;;;;;;;;;;;;;;;;;53013;1256;1045734;-81
2024/01/21 12:37:02;;;;;;;;;;;;;;;;;;53015;1256;1005497;-79
2024/01/21 12:39:28;;;;;;;;;;;;;;;;;;52990;1256;1061037;-79
2024/01/21 12:41:55;;;;;;;;;;;;;;;;;;53009;1251;1004743;-79
2024/01/21 12:44:21;;;;;;;;;;;;;;;;;;53042;1251;1056966;-79
2024/01/21 12:46:48;;;;;;;;;;;;;;;;;;53034;1251;1004808;-78
2024/01/21 12:49:16;;;;;;;;;;;;;;;;;;53002;1254;1057306;-79
2024/01/21 12:51:44;;;;;;;;;;;;;;;;;;53001;1255;1005438;-81
2024/01/21 12:54:10;;;;;;;;;;;;;;;;;;52978;1256;1039251;-79
2024/01/21 12:56:37;;;;;;;;;;;;;;;;;;52962;1255;1005604;-79
2024/01/21 12:59:04;;;;;;;;;;;;;;;;;;52982;1253;1045074;-79
2024/01/21 13:01:30;;;;;;;;;;;;;;;;;;53186;1257;1003812;-79
2024/01/21 13:03:57;;;;;;;;;;;;;;;;;;53106;1253;1061197;-81
2024/01/21 13:06:23;;;;;;;;;;;;;;;;;;52966;1257;1004801;-79
2024/01/21 13:08:50;;;;;;;;;;;;;;;;;;53036;1254;1056742;-80
2024/01/21 13:11:16;;;;;;;;;;;;;;;;;;53009;1256;1004939;-80
2024/01/21 13:13:43;;;;;;;;;;;;;;;;;;52963;1251;1058028;-80
2024/01/21 13:16:09;;;;;;;;;;;;;;;;;;53005;1251;1005443;-79
2024/01/21 13:18:37;;;;;;;;;;;;;;;;;;53067;1253;1038655;-81
2024/01/21 13:21:04;;;;;;;;;;;;;;;;;;53030;1251;1005195;-79
2024/01/21 13:23:30;;;;;;;;;;;;;;;;;;53046;1253;1045145;-79
2024/01/21 13:25:57;;;;;;;;;;;;;;;;;;52938;1255;1005333;-79
2024/01/21 13:30:53;;;;;;;;;;;;;;;;;;53031;1251;1005451;-81
2024/01/21 13:33:22;;;;;;;;;;;;;;;;;;53302;1254;1056557;-81
2024/01/21 13:35:48;;;;;;;;;;;;;;;;;;53007;1251;1003718;-81
2024/01/21 13:38:15;;;;;;;;;;;;;;;;;;53019;1255;1003700;-79
2024/01/21 13:40:42;;;;;;;;;;;;;;;;;;52980;1257;1058820;-81
2024/01/21 13:43:09;;;;;;;;;;;;;;;;;;53028;1254;1005411;-79
2024/01/21 13:45:36;;;;;;;;;;;;;;;;;;52890;1251;1038562;-79
2024/01/21 13:48:04;;;;;;;;;;;;;;;;;;53025;1254;1005371;-81
2024/01/21 13:50:31;;;;;;;;;;;;;;;;;;52968;1253;1046000;-80
2024/01/21 13:53:00;;;;;;;;;;;;;;;;;;53023;1254;1004834;-79
2024/01/21 13:55:27;;;;;;;;;;;;;;;;;;52965;1253;1060765;-81
2024/01/21 13:57:54;;;;;;;;;;;;;;;;;;53005;1255;1004807;-81
2024/01/21 14:00:24;;;;;;;;;;;;;;;;;;53181;1254;1059558;-81
2024/01/21 14:02:50;;;;;;;;;;;;;;;;;;54150;1255;1003367;-79
2024/01/21 14:05:16;;;;;;;;;;;;;;;;;;53869;1252;1003436;-81
2024/01/21 14:07:43;;;;;;;;;;;;;;;;;;52951;1256;1058677;-79
2024/01/21 14:10:10;;;;;;;;;;;;;;;;;;53019;1253;1005598;-81
2024/01/21 14:12:37;;;;;;;;;;;;;;;;;;53200;1251;1038253;-81
2024/01/21 14:15:03;;;;;;;;;;;;;;;;;;52976;1254;1005545;-79
2024/01/21 14:17:30;;;;;;;;;;;;;;;;;;53351;1251;1045694;-79
2024/01/21 14:19:56;;;;;;;;;;;;;;;;;;54227;1251;1003083;-81
2024/01/21 14:22:23;;;;;;;;;;;;;;;;;;54201;1251;1060175;-80
2024/01/21 14:24:49;;;;;;;;;;;;;;;;;;54185;1251;1003115;-81
2024/01/21 14:27:16;;;;;;;;;;;;;;;;;;54165;1254;1056677;-81
2024/01/21 14:29:42;;;;;;;;;;;;;;;;;;54162;1251;1003308;-81
2024/01/21 14:32:09;;;;;;;;;;;;;;;;;;54164;1251;1057936;-80
2024/01/21 14:34:36;;;;;;;;;;;;;;;;;;54076;1263;1003391;-79
2024/01/21 14:37:03;;;;;;;;;;;;;;;;;;52973;1254;1038360;-80
2024/01/21 14:39:29;;;;;;;;;;;;;;;;;;54170;1254;1003079;-81
2024/01/21 14:41:56;;;;;;;;;;;;;;;;;;54193;1250;1046250;-80
2024/01/21 14:44:22;;;;;;;;;;;;;;;;;;54191;1251;1003668;-80
2024/01/21 14:46:49;;;;;;;;;;;;;;;;;;54196;1251;1061341;-80
2024/01/21 14:49:15;;;;;;;;;;;;;;;;;;54139;1254;1003310;-80
2024/01/21 14:51:42;;;;;;;;;;;;;;;;;;54175;1252;1057411;-81
2024/01/21 14:54:08;;;;;;;;;;;;;;;;;;53151;1254;1005529;-80
2024/01/21 14:56:35;;;;;;;;;;;;;;;;;;52957;1256;1058192;-81
2024/01/21 14:59:01;;;;;;;;;;;;;;;;;;53000;1254;1005055;-80
2024/01/21 15:01:29;;;;;;;;;;;;;;;;;;53092;1255;1038110;-82
2024/01/21 15:03:55;;;;;;;;;;;;;;;;;;52916;1251;1005474;-82
2024/01/21 15:06:22;;;;;;;;;;;;;;;;;;53021;1253;1045982;-79
2024/01/21 15:08:49;;;;;;;;;;;;;;;;;;52966;1253;1005189;-80
2024/01/21 15:11:15;;;;;;;;;;;;;;;;;;52973;1251;1061100;-80
2024/01/21 15:13:42;;;;;;;;;;;;;;;;;;53041;1251;1005522;-80
2024/01/21 15:16:08;;;;;;;;;;;;;;;;;;53017;1254;1057416;-80
2024/01/21 15:18:35;;;;;;;;;;;;;;;;;;52992;1254;1005471;-81
2024/01/21 15:21:02;;;;;;;;;;;;;;;;;;53053;1254;1057942;-79
2024/01/21 15:23:28;;;;;;;;;;;;;;;;;;53009;1254;1005289;-79
2024/01/21 15:25:59;;;;;;;;;;;;;;;;;;52992;1251;1038735;-81
2024/01/21 15:28:26;;;;;;;;;;;;;;;;;;53652;1251;1041354;-81
2024/01/21 15:30:52;;;;;;;;;;;;;;;;;;54186;1251;1003357;-81
2024/01/21 15:33:19;;;;;;;;;;;;;;;;;;54171;1251;1045496;-79
2024/01/21 15:35:45;;;;;;;;;;;;;;;;;;54202;1251;1003373;-81
2024/01/21 15:38:12;;;;;;;;;;;;;;;;;;54170;1251;1061089;-81
2024/01/21 15:40:39;;;;;;;;;;;;;;;;;;54189;1251;1003081;-80
2024/01/21 15:43:05;;;;;;;;;;;;;;;;;;54226;1251;1056996;-81
2024/01/21 15:45:32;;;;;;;;;;;;;;;;;;53140;1251;1004670;-81
2024/01/21 15:47:58;;;;;;;;;;;;;;;;;;53046;1251;1057478;-79
2024/01/21 15:50:25;;;;;;;;;;;;;;;;;;52927;1251;1005480;-81
2024/01/21 15:52:52;;;;;;;;;;;;;;;;;;53020;1251;1038032;-79
2024/01/21 15:55:19;;;;;;;;;;;;;;;;;;53062;1251;1005335;-79
2024/01/21 15:57:46;;;;;;;;;;;;;;;;;;53286;1251;1045739;-79
2024/01/21 16:00:12;;;;;;;;;;;;;;;;;;54194;1251;1003147;-81
2024/01/21 16:02:39;;;;;;;;;;;;;;;;;;54192;1251;1061322;-81
2024/01/21 16:05:05;;;;;;;;;;;;;;;;;;53300;1251;1004776;-79
2024/01/21 16:07:32;;;;;;;;;;;;;;;;;;53246;1251;1057301;-80
2024/01/21 16:09:58;;;;;;;;;;;;;;;;;;54206;1251;1003371;-80